createdAt,value
2018-06-29T00:00:30.723Z,3.27
2018-06-29T00:03:00.069Z,3.03
2018-06-29T00:05:29.387Z,3.50
2018-06-29T00:07:58.684Z,3.20
2018-06-29T00:10:28.060Z,3.30
2018-06-29T00:12:57.373Z,3.40
2018-06-29T00:15:26.719Z,2.87
2018-06-29T00:17:56.031Z,3.07
2018-06-29T00:20:25.347Z,3.40
2018-06-29T00:22:54.679Z,3.27
2018-06-29T00:25:23.982Z,2.87
2018-06-29T00:27:53.251Z,3.10
2018-06-29T00:30:22.564Z,3.03
2018-06-29T00:32:51.888Z,3.40
2018-06-29T00:35:21.223Z,2.83
2018-06-29T00:37:50.517Z,3.33
2018-06-29T00:40:19.864Z,3.07
2018-06-29T00:42:49.169Z,3.17
2018-06-29T00:45:18.570Z,3.13
2018-06-29T00:47:47.904Z,3.13
2018-06-29T00:50:17.217Z,3.03
2018-06-29T00:52:46.506Z,3.10
2018-06-29T00:55:16.097Z,3.60
2018-06-29T00:57:45.585Z,3.73
2018-06-29T01:00:14.946Z,3.40
2018-06-29T01:02:44.258Z,3.20
2018-06-29T01:05:13.600Z,3.20
2018-06-29T01:07:43.009Z,3.13
2018-06-29T01:10:12.493Z,3.13
2018-06-29T01:12:41.820Z,3.10
2018-06-29T01:15:11.159Z,3.57
2018-06-29T01:17:40.434Z,3.30
2018-06-29T01:20:09.816Z,3.07
2018-06-29T01:22:39.131Z,3.20
2018-06-29T01:25:08.672Z,3.27
2018-06-29T01:27:37.975Z,3.00
2018-06-29T01:30:07.291Z,3.57
2018-06-29T01:32:36.553Z,3.23
2018-06-29T01:35:05.840Z,3.20
2018-06-29T01:37:35.211Z,3.03
2018-06-29T01:40:04.935Z,3.40
2018-06-29T01:42:34.427Z,3.73
2018-06-29T01:45:03.959Z,3.33
2018-06-29T01:47:33.237Z,3.40
2018-06-29T01:50:02.520Z,3.50
2018-06-29T01:52:31.840Z,3.50
2018-06-29T01:55:01.129Z,4.13
2018-06-29T01:57:30.426Z,3.43
2018-06-29T01:59:59.691Z,3.40
2018-06-29T02:02:29.099Z,3.40
2018-06-29T02:04:58.612Z,3.40
2018-06-29T02:07:28.187Z,3.63
2018-06-29T02:09:57.612Z,3.67
2018-06-29T02:12:26.884Z,3.60
2018-06-29T02:14:56.169Z,3.63
2018-06-29T02:17:25.480Z,3.77
2018-06-29T02:19:54.759Z,3.60
2018-06-29T02:22:24.049Z,3.70
2018-06-29T02:24:53.323Z,3.50
2018-06-29T02:27:22.601Z,3.80
2018-06-29T02:29:51.868Z,3.60
2018-06-29T02:32:21.211Z,3.87
2018-06-29T02:34:50.463Z,3.73
2018-06-29T02:37:19.759Z,3.37
2018-06-29T02:39:49.020Z,3.60
2018-06-29T02:42:18.316Z,4.00
2018-06-29T02:44:47.583Z,4.17
2018-06-29T02:47:16.884Z,4.00
2018-06-29T02:49:46.163Z,3.87
2018-06-29T02:52:15.436Z,3.90
2018-06-29T02:54:44.690Z,4.10
2018-06-29T02:57:14.013Z,3.63
2018-06-29T02:59:43.268Z,3.80
2018-06-29T03:02:12.654Z,3.90
2018-06-29T03:04:42.089Z,4.30
2018-06-29T03:07:11.560Z,4.13
2018-06-29T03:09:40.876Z,4.10
2018-06-29T03:12:10.182Z,4.47
2018-06-29T03:14:39.516Z,3.60
2018-06-29T03:17:08.804Z,4.13
2018-06-29T03:19:44.345Z,3.87
2018-06-29T03:22:13.652Z,3.80
2018-06-29T03:24:43.032Z,3.87
2018-06-29T03:27:12.348Z,3.73
2018-06-29T03:29:41.653Z,4.23
2018-06-29T03:32:10.935Z,3.77
2018-06-29T03:34:40.172Z,3.93
2018-06-29T03:37:09.488Z,3.90
2018-06-29T03:39:38.739Z,4.10
2018-06-29T03:42:08.028Z,4.37
2018-06-29T03:44:37.388Z,4.00
2018-06-29T03:47:06.700Z,4.47
2018-06-29T03:49:36.008Z,4.40
2018-06-29T03:52:05.340Z,4.10
2018-06-29T03:54:34.652Z,4.37
2018-06-29T03:57:03.954Z,4.47
2018-06-29T03:59:33.273Z,4.17
2018-06-29T04:02:02.567Z,3.90
2018-06-29T04:04:31.863Z,4.17
2018-06-29T04:07:01.160Z,4.20
2018-06-29T04:09:30.403Z,4.37
2018-06-29T04:11:59.693Z,4.53
2018-06-29T04:14:28.933Z,4.40
2018-06-29T04:16:58.215Z,5.97
2018-06-29T04:19:27.611Z,5.23
2018-06-29T04:21:56.856Z,4.40
2018-06-29T04:24:26.201Z,5.20
2018-06-29T04:26:55.539Z,5.63
2018-06-29T04:29:24.862Z,4.40
2018-06-29T04:31:54.134Z,4.23
2018-06-29T04:34:23.433Z,4.40
2018-06-29T04:36:52.693Z,4.33
2018-06-29T04:39:22.064Z,4.97
2018-06-29T04:41:51.368Z,4.17
2018-06-29T04:44:20.653Z,4.10
2018-06-29T04:46:49.922Z,5.10
2018-06-29T04:49:19.366Z,4.43
2018-06-29T04:51:48.865Z,4.20
2018-06-29T04:54:18.160Z,6.07
2018-06-29T04:56:47.424Z,4.60
2018-06-29T04:59:16.758Z,4.17
2018-06-29T05:01:46.046Z,4.23
2018-06-29T05:04:15.377Z,4.00
2018-06-29T05:06:44.716Z,4.10
2018-06-29T05:09:13.992Z,3.90
2018-06-29T05:11:43.331Z,4.20
2018-06-29T05:14:12.622Z,5.03
2018-06-29T05:16:41.915Z,5.07
2018-06-29T05:19:11.224Z,3.90
2018-06-29T05:21:40.530Z,4.43
2018-06-29T05:24:09.810Z,4.47
2018-06-29T05:26:39.063Z,4.20
2018-06-29T05:29:08.354Z,4.07
2018-06-29T05:31:37.649Z,3.80
2018-06-29T05:34:06.975Z,3.27
2018-06-29T05:36:36.248Z,3.73
2018-06-29T05:39:08.119Z,3.07
2018-06-29T05:41:37.428Z,3.27
2018-06-29T05:44:06.892Z,3.23
2018-06-29T05:46:36.827Z,3.30
2018-06-29T05:49:06.508Z,3.60
2018-06-29T05:51:35.780Z,3.43
2018-06-29T05:54:05.424Z,3.10
2018-06-29T05:56:34.664Z,3.30
2018-06-29T05:59:04.166Z,3.30
2018-06-29T06:01:33.576Z,3.37
2018-06-29T06:04:02.961Z,3.40
2018-06-29T06:06:32.448Z,3.60
2018-06-29T06:09:02.007Z,3.80
2018-06-29T06:11:31.481Z,4.10
2018-06-29T06:14:00.764Z,3.73
2018-06-29T06:16:30.031Z,3.90
2018-06-29T06:20:06.169Z,3.80
2018-06-29T06:22:35.482Z,4.00
2018-06-29T06:25:05.828Z,3.70
2018-06-29T06:27:35.147Z,3.60
2018-06-29T06:30:05.057Z,3.10
2018-06-29T06:32:34.340Z,3.60
2018-06-29T06:35:03.769Z,3.90
2018-06-29T06:37:33.028Z,3.30
2018-06-29T06:40:02.325Z,3.80
2018-06-29T06:42:31.580Z,3.70
2018-06-29T06:45:00.917Z,3.80
2018-06-29T06:47:30.160Z,3.40
2018-06-29T06:49:59.460Z,3.23
2018-06-29T06:52:28.785Z,3.23
2018-06-29T06:54:58.037Z,3.60
2018-06-29T06:57:27.304Z,3.20
2018-06-29T06:59:56.629Z,3.30
2018-06-29T07:02:25.920Z,3.30
2018-06-29T07:04:55.192Z,3.10
2018-06-29T07:07:24.497Z,3.10
2018-06-29T07:09:53.751Z,2.90
2018-06-29T07:12:23.236Z,3.03
2018-06-29T07:14:52.697Z,3.07
2018-06-29T07:17:22.144Z,3.00
2018-06-29T07:19:51.592Z,2.87
2018-06-29T07:22:20.923Z,3.00
2018-06-29T07:24:50.192Z,3.13
2018-06-29T07:27:19.532Z,2.63
2018-06-29T07:29:48.800Z,2.77
2018-06-29T07:32:18.108Z,2.60
2018-06-29T07:34:47.376Z,2.13
2018-06-29T07:37:16.672Z,3.33
2018-06-29T07:39:45.932Z,3.27
2018-06-29T07:42:15.224Z,2.40
2018-06-29T07:44:44.553Z,2.17
2018-06-29T07:47:13.840Z,2.43
2018-06-29T07:49:43.169Z,2.20
2018-06-29T07:52:12.481Z,2.33
2018-06-29T07:54:41.793Z,2.30
2018-06-29T07:57:11.070Z,2.30
2018-06-29T07:59:40.343Z,2.60
2018-06-29T08:02:09.640Z,2.57
2018-06-29T08:04:38.948Z,2.30
2018-06-29T08:07:08.253Z,2.60
2018-06-29T08:09:37.519Z,2.40
2018-06-29T08:12:06.818Z,2.33
2018-06-29T08:14:36.069Z,2.53
2018-06-29T08:17:05.395Z,2.23
2018-06-29T08:19:34.710Z,2.20
2018-06-29T08:22:04.057Z,2.73
2018-06-29T08:24:33.319Z,2.47
2018-06-29T08:27:02.619Z,2.67
2018-06-29T08:29:31.896Z,2.40
2018-06-29T08:32:01.209Z,2.30
2018-06-29T08:34:30.468Z,2.23
2018-06-29T08:36:59.791Z,2.40
2018-06-29T08:39:29.090Z,2.17
2018-06-29T08:41:58.336Z,2.20
2018-06-29T08:44:27.635Z,2.37
2018-06-29T08:46:57.055Z,2.13
2018-06-29T08:49:26.236Z,2.10
2018-06-29T08:51:55.576Z,2.40
2018-06-29T08:54:24.900Z,2.50
2018-06-29T08:56:54.132Z,2.27
2018-06-29T08:59:23.481Z,1.97
2018-06-29T09:01:52.767Z,2.30
2018-06-29T09:04:22.040Z,2.60
2018-06-29T09:06:51.320Z,2.40
2018-06-29T09:09:20.644Z,2.57
2018-06-29T09:11:49.935Z,2.57
2018-06-29T09:14:19.209Z,2.23
2018-06-29T09:16:48.573Z,2.50
2018-06-29T09:19:17.936Z,3.17
2018-06-29T09:21:47.216Z,2.97
2018-06-29T09:24:16.624Z,2.53
2018-06-29T09:26:46.004Z,2.80
2018-06-29T09:29:15.407Z,2.27
2018-06-29T09:31:44.678Z,2.63
2018-06-29T09:34:14.012Z,2.67
2018-06-29T09:36:43.592Z,2.50
2018-06-29T09:39:13.459Z,2.37
2018-06-29T09:41:43.132Z,2.90
2018-06-29T09:44:12.446Z,3.97
2018-06-29T09:46:41.736Z,2.90
2018-06-29T09:49:11.027Z,2.73
2018-06-29T09:51:40.284Z,2.90
2018-06-29T09:54:09.576Z,2.47
2018-06-29T09:56:38.876Z,3.00
2018-06-29T09:59:08.385Z,2.70
2018-06-29T10:01:37.650Z,2.40
2018-06-29T10:04:06.984Z,3.27
2018-06-29T10:06:36.323Z,2.73
2018-06-29T10:09:07.812Z,2.30
2018-06-29T10:11:37.110Z,2.50
2018-06-29T10:14:06.565Z,2.23
2018-06-29T10:16:35.968Z,2.83
2018-06-29T10:19:05.302Z,2.53
2018-06-29T10:21:34.648Z,2.40
2018-06-29T10:24:04.005Z,2.40
2018-06-29T10:26:33.484Z,2.50
2018-06-29T10:29:02.972Z,3.17
2018-06-29T10:31:32.401Z,2.83
2018-06-29T10:34:01.819Z,2.33
2018-06-29T10:36:31.233Z,2.63
2018-06-29T10:39:00.490Z,3.00
2018-06-29T10:41:29.801Z,2.33
2018-06-29T10:44:00.006Z,2.70
2018-06-29T10:46:29.302Z,3.17
2018-06-29T10:48:58.575Z,3.07
2018-06-29T10:51:27.840Z,2.77
2018-06-29T10:53:57.165Z,2.47
2018-06-29T10:56:26.445Z,2.57
2018-06-29T10:58:55.761Z,2.70
2018-06-29T11:01:25.104Z,2.37
2018-06-29T11:03:54.396Z,2.77
2018-06-29T11:06:23.749Z,2.30
2018-06-29T11:08:53.007Z,2.23
2018-06-29T11:11:22.292Z,2.27
2018-06-29T11:13:51.725Z,2.67
2018-06-29T11:16:21.244Z,2.20
2018-06-29T11:18:50.778Z,2.43
2018-06-29T11:21:20.292Z,2.17
2018-06-29T11:23:49.748Z,2.57
2018-06-29T11:26:19.061Z,2.87
2018-06-29T11:28:48.309Z,2.83
2018-06-29T11:31:17.756Z,2.57
2018-06-29T11:33:47.088Z,2.70
2018-06-29T11:36:16.378Z,2.40
2018-06-29T11:38:45.670Z,2.27
2018-06-29T11:41:14.920Z,2.60
2018-06-29T11:43:44.346Z,2.23
2018-06-29T11:46:13.829Z,2.60
2018-06-29T11:48:43.292Z,2.73
2018-06-29T11:51:12.740Z,2.40
2018-06-29T11:53:42.053Z,2.70
2018-06-29T11:56:11.567Z,2.60
2018-06-29T11:58:40.811Z,2.70
2018-06-29T12:01:10.150Z,2.40
2018-06-29T12:03:39.456Z,2.77
2018-06-29T12:06:08.753Z,2.90
2018-06-29T12:08:38.044Z,2.80
2018-06-29T12:11:07.869Z,2.50
2018-06-29T12:13:37.160Z,2.67
2018-06-29T12:16:06.961Z,2.70
2018-06-29T12:18:37.437Z,2.50
2018-06-29T12:21:07.078Z,2.63
2018-06-29T12:23:36.963Z,3.07
2018-06-29T12:26:06.600Z,2.80
2018-06-29T12:28:37.061Z,2.80
2018-06-29T12:31:06.539Z,2.63
2018-06-29T12:33:36.233Z,2.80
2018-06-29T12:36:05.919Z,2.77
2018-06-29T12:38:35.200Z,2.60
2018-06-29T12:41:04.526Z,2.90
2018-06-29T12:43:33.838Z,2.70
2018-06-29T12:46:03.125Z,3.10
2018-06-29T12:48:32.499Z,2.87
2018-06-29T12:51:01.753Z,2.83
2018-06-29T12:53:31.112Z,3.00
2018-06-29T12:56:04.397Z,2.83
2018-06-29T12:58:33.875Z,3.50
2018-06-29T13:01:03.110Z,2.97
2018-06-29T13:03:32.436Z,3.20
2018-06-29T13:06:01.730Z,2.90
2018-06-29T13:08:31.082Z,2.97
2018-06-29T13:11:00.320Z,3.00
2018-06-29T13:13:29.645Z,2.73
2018-06-29T13:15:58.971Z,2.60
2018-06-29T13:18:28.329Z,3.13
2018-06-29T13:20:57.830Z,3.30
2018-06-29T13:23:27.163Z,3.43
2018-06-29T13:25:56.456Z,2.70
2018-06-29T13:28:25.871Z,2.80
2018-06-29T13:30:55.128Z,3.10
2018-06-29T13:33:24.395Z,2.87
2018-06-29T13:35:53.655Z,2.93
2018-06-29T13:38:23.059Z,2.67
2018-06-29T13:40:52.346Z,3.90
2018-06-29T13:43:21.681Z,2.87
2018-06-29T13:45:50.921Z,3.17
2018-06-29T13:48:20.192Z,3.00
2018-06-29T13:50:49.472Z,2.70
2018-06-29T13:53:18.740Z,2.70
2018-06-29T13:55:48.044Z,3.33
2018-06-29T13:58:17.369Z,2.70
2018-06-29T14:00:46.609Z,2.80
2018-06-29T14:03:15.964Z,2.73
2018-06-29T14:05:45.217Z,2.97
2018-06-29T14:08:14.598Z,2.83
2018-06-29T14:10:43.850Z,3.00
2018-06-29T14:13:13.128Z,2.87
2018-06-29T14:15:42.425Z,3.03
2018-06-29T14:18:11.696Z,3.00
2018-06-29T14:20:41.004Z,2.50
2018-06-29T14:23:10.272Z,2.80
2018-06-29T14:25:39.588Z,2.37
2018-06-29T14:28:08.874Z,2.80
2018-06-29T14:30:38.186Z,2.70
2018-06-29T14:33:07.512Z,2.50
2018-06-29T14:35:36.796Z,2.77
2018-06-29T14:38:06.107Z,2.53
2018-06-29T14:40:35.432Z,2.50
2018-06-29T14:43:04.763Z,2.43
2018-06-29T14:45:34.088Z,2.50
2018-06-29T14:48:03.376Z,2.43
2018-06-29T14:50:32.668Z,2.60
2018-06-29T14:53:06.493Z,2.20
2018-06-29T14:55:35.892Z,2.33
2018-06-29T14:58:05.317Z,2.67
2018-06-29T15:00:34.603Z,2.20
2018-06-29T15:03:03.931Z,2.40
2018-06-29T15:05:33.276Z,2.47
2018-06-29T15:08:02.533Z,2.10
2018-06-29T15:10:31.900Z,2.60
2018-06-29T15:13:01.201Z,2.57
2018-06-29T15:15:30.496Z,2.77
2018-06-29T15:17:59.855Z,2.90
2018-06-29T15:20:29.169Z,2.70
2018-06-29T15:22:58.461Z,2.80
2018-06-29T15:25:27.923Z,2.90
2018-06-29T15:27:57.200Z,2.70
2018-06-29T15:30:26.560Z,2.63
2018-06-29T15:32:55.856Z,2.67
2018-06-29T15:35:25.137Z,2.43
2018-06-29T15:37:54.408Z,2.70
2018-06-29T15:40:23.713Z,2.50
2018-06-29T15:42:53.008Z,2.80
2018-06-29T15:45:22.388Z,2.70
2018-06-29T15:47:51.652Z,2.50
2018-06-29T15:50:20.953Z,2.83
2018-06-29T15:52:50.214Z,2.20
2018-06-29T15:55:19.586Z,2.50
2018-06-29T15:57:48.884Z,2.40
2018-06-29T16:00:18.209Z,2.33
2018-06-29T16:02:47.506Z,2.23
2018-06-29T16:05:16.835Z,2.80
2018-06-29T16:07:46.112Z,2.70
2018-06-29T16:10:15.404Z,2.50
2018-06-29T16:12:47.534Z,2.50
2018-06-29T16:15:16.877Z,2.70
2018-06-29T16:17:46.196Z,2.40
2018-06-29T16:20:15.507Z,2.43
2018-06-29T16:22:44.778Z,2.63
2018-06-29T16:25:14.091Z,2.60
2018-06-29T16:27:43.436Z,2.50
2018-06-29T16:30:12.773Z,2.60
2018-06-29T16:32:42.240Z,2.70
2018-06-29T16:35:13.108Z,2.37
2018-06-29T16:37:43.456Z,2.43
2018-06-29T16:40:12.952Z,2.60
2018-06-29T16:42:42.241Z,2.40
2018-06-29T16:45:11.498Z,2.37
2018-06-29T16:47:40.888Z,2.47
2018-06-29T16:50:10.172Z,2.47
2018-06-29T16:52:39.440Z,2.30
2018-06-29T16:55:09.074Z,2.40
2018-06-29T16:57:38.679Z,2.73
2018-06-29T17:00:08.353Z,2.43
2018-06-29T17:02:37.670Z,2.43
2018-06-29T17:05:06.929Z,2.50
2018-06-29T17:07:36.211Z,2.57
2018-06-29T17:10:05.520Z,2.27
2018-06-29T17:12:34.800Z,2.50
2018-06-29T17:15:04.424Z,2.40
2018-06-29T17:17:33.784Z,2.20
2018-06-29T17:20:03.214Z,2.07
2018-06-29T17:22:32.807Z,2.20
2018-06-29T17:25:02.065Z,2.40
2018-06-29T17:27:31.336Z,2.10
2018-06-29T17:30:00.614Z,2.33
2018-06-29T17:32:29.924Z,2.63
2018-06-29T17:34:59.191Z,2.60
2018-06-29T17:37:28.481Z,2.40
2018-06-29T17:39:57.772Z,2.53
2018-06-29T17:42:27.092Z,3.07
2018-06-29T17:44:56.543Z,2.40
2018-06-29T17:47:26.001Z,2.73
2018-06-29T17:49:55.291Z,2.57
2018-06-29T17:52:24.595Z,2.30
2018-06-29T17:54:54.012Z,2.33
2018-06-29T17:57:23.320Z,2.30
2018-06-29T17:59:52.717Z,2.67
2018-06-29T18:02:21.944Z,2.57
2018-06-29T18:04:51.172Z,2.30
2018-06-29T18:07:20.542Z,2.60
2018-06-29T18:09:49.788Z,5.37
2018-06-29T18:12:19.160Z,3.23
2018-06-29T18:14:48.432Z,2.90
2018-06-29T18:17:17.692Z,2.50
2018-06-29T18:19:46.993Z,2.40
2018-06-29T18:22:16.240Z,2.70
2018-06-29T18:24:45.552Z,2.20
2018-06-29T18:27:14.796Z,2.63
2018-06-29T18:29:44.304Z,3.00
2018-06-29T18:32:13.750Z,2.33
2018-06-29T18:34:43.183Z,2.93
2018-06-29T18:37:12.493Z,2.87
2018-06-29T18:39:41.772Z,2.90
2018-06-29T18:42:11.244Z,2.70
2018-06-29T18:44:40.692Z,2.80
2018-06-29T18:47:10.154Z,2.43
2018-06-29T18:49:39.632Z,2.90
2018-06-29T18:52:08.928Z,2.80
2018-06-29T18:54:38.236Z,2.97
2018-06-29T18:57:07.514Z,2.93
2018-06-29T18:59:36.811Z,2.63
2018-06-29T19:02:06.087Z,2.60
2018-06-29T19:04:35.408Z,2.70
2018-06-29T19:07:04.672Z,2.87
2018-06-29T19:09:33.995Z,5.73
2018-06-29T19:12:04.116Z,4.50
2018-06-29T19:14:33.593Z,3.10
2018-06-29T19:17:02.897Z,3.50
2018-06-29T19:19:32.220Z,2.93
2018-06-29T19:22:01.575Z,3.07
2018-06-29T19:24:30.901Z,2.93
2018-06-29T19:27:00.196Z,3.07
2018-06-29T19:29:29.467Z,3.20
2018-06-29T19:31:59.186Z,3.07
2018-06-29T19:34:28.477Z,3.40
2018-06-29T19:36:57.754Z,3.00
2018-06-29T19:39:27.057Z,3.10
2018-06-29T19:41:56.325Z,3.00
2018-06-29T19:44:25.665Z,2.87
2018-06-29T19:46:54.919Z,3.57
2018-06-29T19:49:24.196Z,2.80
2018-06-29T19:51:53.497Z,3.10
2018-06-29T19:54:22.786Z,3.10
2018-06-29T19:56:52.088Z,3.03
2018-06-29T19:59:21.522Z,3.27
2018-06-29T20:01:50.773Z,3.47
2018-06-29T20:04:20.123Z,3.97
2018-06-29T20:06:49.409Z,4.37
2018-06-29T20:09:18.690Z,3.30
2018-06-29T20:11:48.019Z,3.03
2018-06-29T20:14:17.849Z,3.17
2018-06-29T20:16:47.174Z,2.90
2018-06-29T20:19:16.524Z,3.00
2018-06-29T20:21:45.877Z,3.07
2018-06-29T20:24:15.124Z,3.20
2018-06-29T20:26:44.571Z,3.20
2018-06-29T20:29:14.159Z,3.00
2018-06-29T20:31:43.628Z,3.30
2018-06-29T20:34:12.879Z,2.87
2018-06-29T20:36:42.228Z,3.30
2018-06-29T20:39:12.639Z,3.60
2018-06-29T20:41:41.937Z,3.50
2018-06-29T20:44:11.208Z,3.10
2018-06-29T20:46:40.489Z,3.37
2018-06-29T20:49:09.775Z,3.23
2018-06-29T20:51:39.060Z,3.40
2018-06-29T20:54:08.353Z,3.37
2018-06-29T20:56:37.865Z,3.57
2018-06-29T20:59:07.124Z,3.27
2018-06-29T21:01:36.504Z,3.13
2018-06-29T21:04:05.801Z,3.43
2018-06-29T21:06:36.193Z,3.47
2018-06-29T21:09:07.774Z,4.33
2018-06-29T21:11:37.363Z,4.70
2018-06-29T21:14:06.608Z,3.80
2018-06-29T21:16:35.919Z,3.63
2018-06-29T21:19:05.292Z,3.83
2018-06-29T21:21:34.587Z,4.07
2018-06-29T21:24:03.927Z,3.97
2018-06-29T21:26:33.267Z,3.73
2018-06-29T21:29:02.532Z,3.97
2018-06-29T21:31:32.689Z,3.90
2018-06-29T21:34:01.962Z,3.47
2018-06-29T21:36:31.615Z,3.90
2018-06-29T21:39:01.044Z,3.70
2018-06-29T21:41:30.313Z,3.97
2018-06-29T21:43:59.563Z,3.90
2018-06-29T21:46:28.868Z,3.67
2018-06-29T21:48:58.135Z,4.20
2018-06-29T21:51:27.477Z,4.10
2018-06-29T21:53:56.753Z,4.10
2018-06-29T21:56:26.054Z,3.60
2018-06-29T21:58:55.709Z,4.10
2018-06-29T22:01:25.019Z,3.50
2018-06-29T22:03:54.312Z,3.87
2018-06-29T22:06:23.629Z,4.03
2018-06-29T22:08:52.983Z,3.73
2018-06-29T22:11:22.276Z,3.57
2018-06-29T22:13:51.590Z,3.83
2018-06-29T22:16:21.029Z,4.03
2018-06-29T22:18:50.436Z,4.07
2018-06-29T22:21:19.685Z,3.80
2018-06-29T22:23:49.090Z,4.07
2018-06-29T22:26:18.512Z,4.10
2018-06-29T22:28:48.068Z,4.50
2018-06-29T22:31:17.460Z,4.00
2018-06-29T22:33:46.757Z,4.10
2018-06-29T22:36:16.041Z,3.80
2018-06-29T22:38:45.391Z,3.77
2018-06-29T22:41:14.640Z,4.20
2018-06-29T22:43:44.013Z,3.70
2018-06-29T22:46:13.272Z,3.70
2018-06-29T22:48:42.615Z,4.10
2018-06-29T22:51:11.879Z,4.20
2018-06-29T22:53:41.195Z,3.60
2018-06-29T22:56:10.459Z,3.93
2018-06-29T22:58:39.784Z,4.40
2018-06-29T23:01:09.094Z,4.13
2018-06-29T23:03:43.531Z,3.90
2018-06-29T23:06:12.848Z,3.87
2018-06-29T23:08:42.153Z,4.23
2018-06-29T23:11:11.451Z,4.07
2018-06-29T23:13:40.776Z,4.20
2018-06-29T23:16:10.072Z,4.10
2018-06-29T23:18:39.400Z,4.10
2018-06-29T23:21:08.676Z,4.60
2018-06-29T23:23:37.982Z,3.87
2018-06-29T23:26:07.335Z,4.07
2018-06-29T23:28:36.737Z,3.63
2018-06-29T23:31:05.995Z,3.97
2018-06-29T23:33:35.292Z,3.97
2018-06-29T23:36:04.610Z,4.10
2018-06-29T23:38:33.893Z,4.03
2018-06-29T23:41:03.229Z,4.03
2018-06-29T23:43:32.501Z,3.30
2018-06-29T23:46:01.790Z,4.03
2018-06-29T23:48:31.209Z,4.30
2018-06-29T23:51:00.727Z,4.40
2018-06-29T23:53:30.265Z,4.47
2018-06-29T23:55:59.777Z,4.27
2018-06-29T23:58:29.322Z,4.23
